Time;durP1;ratioP1;P1;durP2;ratioP2;P2;SDS_P1;SDS_P2;PMS_P1;PMS_P2;Temp;Humidity;BMP_temperature;BMP_pressure;BME280_temperature;BME280_humidity;BME280_pressure;Samples;Min_cycle;Max_cycle;Signal;HPM_P1;HPM_P2
2024/01/19 00:01:27;;;;;;;14.35;11.20;;;;;;;1.34;69.78;101324.06;5005557;28;20048;-61
2024/01/19 00:03:52;;;;;;;15.00;12.23;;;;;;;1.36;70.08;101329.34;5015106;28;20029;-60
2024/01/19 00:06:17;;;;;;;17.73;12.48;;;;;;;1.35;69.97;101330.38;5027449;28;20370;-61
2024/01/19 00:08:43;;;;;;;15.88;11.45;;;;;;;1.29;70.27;101326.47;5028094;28;20021;-61
2024/01/19 00:11:15;;;;;;;17.55;11.23;;;;;;;1.30;70.51;101327.31;5028785;28;20030;-60
2024/01/19 00:13:41;;;;;;;18.77;11.50;;;;;;;1.29;70.33;101325.63;5028737;28;20035;-61
2024/01/19 00:16:07;;;;;;;15.98;10.60;;;;;;;1.29;70.27;101333.84;5028068;28;20036;-61
2024/01/19 00:18:32;;;;;;;17.60;10.88;;;;;;;1.29;70.44;101336.56;5025936;28;20021;-60
2024/01/19 00:20:57;;;;;;;15.07;12.18;;;;;;;1.32;70.75;101331.59;4999436;28;20462;-61
2024/01/19 00:23:23;;;;;;;15.20;10.85;;;;;;;1.31;70.89;101331.78;5002636;28;20488;-61
2024/01/19 00:25:48;;;;;;;15.60;11.20;;;;;;;1.34;70.24;101329.53;4989704;28;20080;-61
2024/01/19 00:28:13;;;;;;;14.65;11.02;;;;;;;1.32;70.00;101331.59;4993700;28;20033;-60
2024/01/19 00:30:39;;;;;;;13.35;10.55;;;;;;;1.31;70.15;101329.91;5007962;28;20452;-61
2024/01/19 00:33:04;;;;;;;15.80;11.63;;;;;;;1.32;69.92;101334.31;5050903;28;20363;-61
2024/01/19 00:35:29;;;;;;;17.25;10.90;;;;;;;1.32;70.30;101342.53;5024409;28;20117;-61
2024/01/19 00:37:55;;;;;;;15.57;10.52;;;;;;;1.32;70.42;101341.69;5025926;28;20027;-61
2024/01/19 00:40:20;;;;;;;15.25;11.00;;;;;;;1.32;69.75;101350.72;5059480;28;20033;-61
2024/01/19 00:42:45;;;;;;;15.98;10.32;;;;;;;1.32;69.97;101358.09;5002631;28;20045;-61
2024/01/19 00:45:11;;;;;;;14.35;10.70;;;;;;;1.32;69.54;101355.34;5008179;28;20056;-61
2024/01/19 00:47:36;;;;;;;15.15;11.02;;;;;;;1.29;70.11;101352.97;5007568;28;20104;-61
2024/01/19 00:50:03;;;;;;;15.15;9.77;;;;;;;1.29;70.11;101358.44;5024178;28;20088;-61
2024/01/19 00:52:29;;;;;;;17.98;10.90;;;;;;;1.30;69.10;101365.59;5077795;28;20026;-61
2024/01/19 00:54:54;;;;;;;14.18;10.55;;;;;;;1.25;69.85;101362.56;5063315;28;20024;-61
2024/01/19 00:57:19;;;;;;;15.32;10.88;;;;;;;1.22;69.40;101361.91;5008066;28;20069;-61
2024/01/19 00:59:45;;;;;;;13.85;11.00;;;;;;;1.20;69.74;101361.22;5017707;28;20543;-61
2024/01/19 01:02:10;;;;;;;14.73;11.32;;;;;;;1.18;69.65;101357.84;4996411;28;20034;-61
2024/01/19 01:04:35;;;;;;;13.75;10.95;;;;;;;1.18;69.68;101357.84;5007420;28;20048;-61
2024/01/19 01:07:01;;;;;;;14.35;10.52;;;;;;;1.19;69.73;101354.06;5008628;28;20124;-61
2024/01/19 01:09:27;;;;;;;15.10;11.20;;;;;;;1.17;69.81;101361.56;5008581;28;20750;-61
2024/01/19 01:11:52;;;;;;;12.23;10.35;;;;;;;1.17;69.40;101358.84;5007579;28;20413;-61
2024/01/19 01:14:17;;;;;;;14.80;10.55;;;;;;;1.18;69.72;101357.84;5008281;28;20058;-61
2024/01/19 01:16:43;;;;;;;15.40;10.05;;;;;;;1.15;69.38;101355.44;5014300;28;20027;-60
2024/01/19 01:19:08;;;;;;;9.93;8.60;;;;;;;1.15;70.27;101360.91;4996185;28;20464;-60
2024/01/19 01:21:33;;;;;;;12.30;9.57;;;;;;;1.16;70.19;101359.03;4988894;28;20030;-60
2024/01/19 01:23:59;;;;;;;12.65;9.50;;;;;;;1.15;69.99;101373.75;5000375;28;20112;-60
2024/01/19 01:26:25;;;;;;;12.43;9.98;;;;;;;1.14;69.93;101369.28;5007517;28;20061;-60
2024/01/19 01:28:50;;;;;;;13.35;9.30;;;;;;;1.17;70.01;101377.13;5008388;28;20060;-60
2024/01/19 01:31:16;;;;;;;14.38;8.85;;;;;;;1.17;69.82;101380.72;5007282;28;20108;-60
2024/01/19 01:33:41;;;;;;;12.88;9.23;;;;;;;1.17;69.70;101379.88;5014212;28;20046;-61
2024/01/19 01:36:06;;;;;;;14.93;9.35;;;;;;;1.17;70.44;101385.34;5002617;28;20026;-61
2024/01/19 01:38:32;;;;;;;10.60;9.23;;;;;;;1.16;69.48;101384.50;5008327;28;20019;-61
2024/01/19 01:40:58;;;;;;;10.65;8.38;;;;;;;1.15;69.66;101376.47;5007471;28;20038;-61
2024/01/19 01:43:29;;;;;;;11.35;9.10;;;;;;;1.15;69.51;101382.78;5008089;28;20045;-60
2024/01/19 01:45:54;;;;;;;15.00;9.18;;;;;;;1.15;69.41;101395.63;5007500;28;20117;-61
2024/01/19 01:48:23;;;;;;;14.05;9.23;;;;;;;1.14;69.51;101389.31;5002169;28;20104;-61
2024/01/19 01:50:48;;;;;;;11.82;9.32;;;;;;;1.13;69.08;101386.72;5020861;28;20553;-60
2024/01/19 01:53:15;;;;;;;10.00;8.23;;;;;;;1.10;68.89;101387.97;5027303;28;20034;-60
2024/01/19 01:55:40;;;;;;;10.75;8.93;;;;;;;1.07;68.31;101391.03;5027634;28;20037;-61
2024/01/19 01:58:10;;;;;;;13.38;9.02;;;;;;;1.03;68.60;101397.03;5027778;28;20078;-61
2024/01/19 02:00:36;;;;;;;13.18;8.60;;;;;;;1.02;68.82;101400.78;5026957;28;20029;-61
2024/01/19 02:03:02;;;;;;;10.25;8.95;;;;;;;1.00;68.73;101397.38;5027705;28;20033;-61
2024/01/19 02:05:27;;;;;;;11.75;8.88;;;;;;;0.96;68.11;101402.34;5038003;28;20046;-60
2024/01/19 02:07:53;;;;;;;12.93;8.27;;;;;;;0.93;68.44;101414.47;5006215;28;20393;-61
2024/01/19 02:10:18;;;;;;;13.23;8.73;;;;;;;0.94;68.28;101412.59;4991567;28;20087;-60
2024/01/19 02:12:44;;;;;;;11.18;8.52;;;;;;;0.91;67.59;101411.09;4995962;28;20061;-61
2024/01/19 02:15:23;;;;;;;12.65;8.63;;;;;;;0.91;68.52;101421.19;5010060;28;20211;-61
2024/01/19 02:17:50;;;;;;;11.10;8.57;;;;;;;0.88;67.54;101421.53;5009914;28;20040;-61
2024/01/19 02:20:15;;;;;;;11.40;7.93;;;;;;;0.85;68.68;101421.88;5012109;28;20374;-61
2024/01/19 02:22:43;;;;;;;8.18;7.30;;;;;;;0.82;69.51;101419.47;5082471;28;20038;-61
2024/01/19 02:25:09;;;;;;;9.82;7.22;;;;;;;0.84;69.85;101422.91;5071612;28;20068;-61
2024/01/19 02:27:35;;;;;;;10.88;6.75;;;;;;;0.85;69.52;101427.34;4991441;28;20568;-61
2024/01/19 02:30:01;;;;;;;12.60;6.55;;;;;;;0.82;69.39;101434.00;4990755;28;20037;-60
2024/01/19 02:32:26;;;;;;;11.98;6.40;;;;;;;0.86;70.28;101435.34;5000828;28;20034;-61
2024/01/19 02:34:51;;;;;;;8.25;5.93;;;;;;;0.88;69.75;101443.38;5030618;28;20037;-60
2024/01/19 02:37:17;;;;;;;8.90;6.40;;;;;;;0.88;70.74;101443.38;5029712;28;20029;-60
2024/01/19 02:39:42;;;;;;;7.18;5.45;;;;;;;0.89;70.67;101442.34;5030869;28;20413;-60
2024/01/19 02:42:08;;;;;;;8.15;5.25;;;;;;;0.90;70.35;101449.50;5029758;28;20048;-60
2024/01/19 02:44:33;;;;;;;6.53;4.95;;;;;;;0.91;71.32;101453.97;5016283;28;20045;-60
2024/01/19 02:46:59;;;;;;;8.70;4.97;;;;;;;0.91;71.21;101459.44;5017859;28;20658;-60
2024/01/19 02:49:24;;;;;;;7.45;5.10;;;;;;;0.91;70.37;101462.16;5033558;28;20369;-60
2024/01/19 02:51:49;;;;;;;5.55;4.85;;;;;;;0.92;71.59;101459.25;5027402;28;20041;-61
2024/01/19 02:54:15;;;;;;;7.88;4.65;;;;;;;0.92;71.37;101461.97;5101107;28;20204;-61
2024/01/19 02:56:40;;;;;;;5.63;4.95;;;;;;;0.96;71.27;101459.75;5112817;28;20043;-61
2024/01/19 02:59:05;;;;;;;6.35;4.40;;;;;;;0.97;72.09;101464.19;5113623;28;20032;-61
2024/01/19 03:01:31;;;;;;;7.88;4.65;;;;;;;0.97;71.74;101473.25;5052104;28;20022;-61
2024/01/19 03:03:57;;;;;;;5.05;4.53;;;;;;;0.98;71.97;101468.63;5013375;28;20041;-60
2024/01/19 03:06:23;;;;;;;8.10;5.10;;;;;;;0.98;72.36;101472.22;5029880;28;20053;-61
2024/01/19 03:08:48;;;;;;;9.60;5.18;;;;;;;0.99;72.23;101478.53;5029820;28;20103;-60
2024/01/19 03:11:14;;;;;;;7.28;5.28;;;;;;;1.01;71.94;101476.47;5028850;28;20037;-60
2024/01/19 03:13:39;;;;;;;6.88;5.68;;;;;;;1.01;72.68;101479.22;5014105;28;20101;-60
2024/01/19 03:16:06;;;;;;;5.75;4.90;;;;;;;1.02;72.71;101480.91;5009681;28;20393;-60
2024/01/19 03:18:32;;;;;;;11.75;5.75;;;;;;;1.02;73.06;101477.31;5008721;28;20050;-60
2024/01/19 03:20:57;;;;;;;7.38;5.65;;;;;;;1.03;72.94;101479.06;5002305;28;20042;-61
2024/01/19 03:23:22;;;;;;;8.13;5.75;;;;;;;1.09;72.33;101483.81;5009516;28;20072;-60
2024/01/19 03:25:48;;;;;;;8.13;6.22;;;;;;;1.07;73.12;101488.59;5007887;28;20040;-60
2024/01/19 03:28:13;;;;;;;7.78;6.13;;;;;;;1.09;72.96;101490.13;5009513;28;20038;-60
2024/01/19 03:30:38;;;;;;;7.15;6.30;;;;;;;1.10;73.02;101483.66;5009908;28;20037;-60
2024/01/19 03:33:04;;;;;;;7.72;6.40;;;;;;;1.12;73.73;101491.66;5008970;28;20030;-60
2024/01/19 03:35:29;;;;;;;10.65;6.97;;;;;;;1.12;72.84;101484.31;5008341;28;20418;-60
2024/01/19 03:37:55;;;;;;;10.85;6.95;;;;;;;1.14;72.89;101486.84;5005310;28;20030;-61
2024/01/19 03:40:20;;;;;;;10.98;6.85;;;;;;;1.14;73.08;101481.38;5003498;28;20034;-61
2024/01/19 03:42:46;;;;;;;8.25;6.82;;;;;;;1.15;72.71;101494.91;4990540;28;20042;-60
2024/01/19 03:45:11;;;;;;;8.38;7.07;;;;;;;1.16;73.33;101491.13;5009129;28;20041;-61
2024/01/19 03:47:37;;;;;;;11.35;6.97;;;;;;;1.17;72.71;101497.44;5008943;28;20026;-61
2024/01/19 03:50:05;;;;;;;8.90;7.32;;;;;;;1.14;72.78;101493.19;5009262;28;20037;-60
2024/01/19 03:52:31;;;;;;;9.63;7.50;;;;;;;1.16;73.34;101502.06;5008541;28;20041;-61
2024/01/19 03:54:56;;;;;;;9.75;7.32;;;;;;;1.15;72.94;101497.63;4996868;28;20026;-60
2024/01/19 03:57:21;;;;;;;11.00;7.50;;;;;;;1.18;72.95;101500.03;5001810;28;20038;-61
2024/01/19 03:59:47;;;;;;;12.98;7.40;;;;;;;1.17;73.81;101494.72;5008413;28;20030;-61
2024/01/19 04:02:12;;;;;;;10.18;7.97;;;;;;;1.18;73.05;101493.72;5009916;28;20090;-60
2024/01/19 04:04:37;;;;;;;11.27;8.40;;;;;;;1.17;72.71;101500.19;5002649;28;20560;-60
2024/01/19 04:07:03;;;;;;;10.73;7.75;;;;;;;1.17;72.68;101501.03;5003552;28;20065;-61
2024/01/19 04:09:28;;;;;;;11.07;7.93;;;;;;;1.18;73.32;101496.44;5028515;28;20025;-60
2024/01/19 04:11:53;;;;;;;11.48;8.25;;;;;;;1.16;73.34;101503.94;5021110;28;20030;-61
2024/01/19 04:14:19;;;;;;;11.50;7.82;;;;;;;1.17;72.59;101511.97;5018895;28;20034;-61
2024/01/19 04:16:44;;;;;;;8.52;7.70;;;;;;;1.18;72.71;101510.97;5008787;28;20430;-61
2024/01/19 04:19:09;;;;;;;12.77;8.13;;;;;;;1.15;72.65;101510.47;5008972;28;20554;-61
2024/01/19 04:21:35;;;;;;;8.88;7.97;;;;;;;1.16;73.18;101520.34;5002283;28;20029;-61
2024/01/19 04:24:00;;;;;;;12.52;8.98;;;;;;;1.16;72.63;101523.94;5001266;28;20034;-61
2024/01/19 04:26:27;;;;;;;13.68;8.18;;;;;;;1.12;72.19;101522.59;5007892;28;20029;-61
2024/01/19 04:28:53;;;;;;;12.43;8.95;;;;;;;1.11;72.13;101528.25;5065971;28;20038;-61
2024/01/19 04:31:18;;;;;;;12.88;8.93;;;;;;;1.09;72.93;101528.38;5112404;28;20903;-61
2024/01/19 04:33:44;;;;;;;11.15;8.93;;;;;;;1.08;72.17;101531.31;5028892;28;20037;-61
2024/01/19 04:36:09;;;;;;;12.02;8.93;;;;;;;1.06;72.61;101533.34;5008058;28;20044;-61
2024/01/19 04:38:35;;;;;;;9.75;8.65;;;;;;;1.09;71.98;101544.78;5009977;28;20036;-60
2024/01/19 04:41:00;;;;;;;13.60;8.43;;;;;;;1.07;72.51;101527.72;5026649;28;20072;-61
2024/01/19 04:43:25;;;;;;;11.40;9.00;;;;;;;1.07;71.79;101538.66;5029776;28;20133;-61
2024/01/19 04:45:51;;;;;;;12.07;9.07;;;;;;;1.06;72.52;101550.63;5032088;28;20036;-60
2024/01/19 04:48:16;;;;;;;16.55;10.00;;;;;;;1.06;71.94;101556.09;5053761;28;20045;-61
2024/01/19 04:50:41;;;;;;;13.63;9.45;;;;;;;1.06;72.23;101555.22;5019624;28;20045;-61
2024/01/19 04:53:07;;;;;;;13.30;9.55;;;;;;;1.06;72.08;101561.56;5008576;28;20493;-60
2024/01/19 04:55:32;;;;;;;11.75;9.95;;;;;;;1.06;72.34;101560.69;5019468;28;20088;-61
2024/01/19 04:57:57;;;;;;;11.02;9.93;;;;;;;1.07;72.02;101562.41;5014928;28;20038;-60
2024/01/19 05:00:22;;;;;;;15.02;10.40;;;;;;;1.05;72.06;101569.94;5007952;28;20040;-61
2024/01/19 05:02:48;;;;;;;10.48;9.10;;;;;;;1.04;72.44;101562.75;5008165;28;20041;-62
2024/01/19 05:05:14;;;;;;;12.05;9.95;;;;;;;1.02;72.31;101570.25;5006027;28;20083;-61
2024/01/19 05:07:40;;;;;;;11.65;9.35;;;;;;;1.02;71.70;101568.38;5054467;28;20201;-61
2024/01/19 05:10:06;;;;;;;14.75;10.40;;;;;;;1.02;71.64;101565.66;5023552;28;20108;-61
2024/01/19 05:12:31;;;;;;;11.88;9.20;;;;;;;1.03;72.09;101574.72;5006313;28;20492;-61
2024/01/19 05:14:57;;;;;;;11.93;10.25;;;;;;;1.06;72.19;101572.50;5012400;28;20052;-63
2024/01/19 05:17:22;;;;;;;15.82;9.80;;;;;;;1.07;71.94;101576.09;5027421;28;20029;-61
2024/01/19 05:19:48;;;;;;;12.20;9.75;;;;;;;1.06;71.49;101579.81;5028152;28;20021;-61
2024/01/19 05:22:13;;;;;;;15.80;10.40;;;;;;;1.01;71.75;101579.50;5029320;28;20453;-61
2024/01/19 05:24:42;;;;;;;13.13;9.48;;;;;;;1.02;71.21;101582.06;5028919;28;20463;-61
2024/01/19 05:27:08;;;;;;;12.15;10.68;;;;;;;1.01;71.28;101580.34;5013146;28;20036;-61
2024/01/19 05:29:34;;;;;;;12.70;10.10;;;;;;;1.04;71.06;101590.09;5007547;28;20034;-61
2024/01/19 05:32:00;;;;;;;12.30;10.25;;;;;;;1.03;71.45;101593.88;5006645;28;20018;-61
2024/01/19 05:34:25;;;;;;;14.52;11.02;;;;;;;1.03;70.99;101600.19;5008084;28;20026;-61
2024/01/19 05:36:50;;;;;;;13.75;11.07;;;;;;;1.02;71.77;101605.81;5010530;28;20033;-62
2024/01/19 05:39:16;;;;;;;14.38;10.68;;;;;;;1.01;71.18;101599.50;5009100;28;20370;-60
2024/01/19 05:41:41;;;;;;;11.60;10.32;;;;;;;1.03;70.96;101615.75;5021353;28;20125;-62
2024/01/19 05:44:07;;;;;;;15.90;9.73;;;;;;;0.98;71.20;101619.84;5026388;28;20042;-62
2024/01/19 05:46:32;;;;;;;13.10;9.93;;;;;;;0.94;71.01;101623.06;5010448;28;20038;-61
2024/01/19 05:48:57;;;;;;;14.05;10.70;;;;;;;0.95;71.27;101633.84;5010872;28;20075;-61
2024/01/19 05:51:23;;;;;;;11.48;10.05;;;;;;;0.94;71.87;101642.19;5010799;28;20022;-61
2024/01/19 05:53:51;;;;;;;13.80;10.68;;;;;;;0.95;71.36;101649.41;5009984;28;20018;-61
2024/01/19 05:56:19;;;;;;;13.88;10.38;;;;;;;0.93;71.61;101656.91;5002918;28;20035;-61
2024/01/19 05:58:45;;;;;;;13.45;10.95;;;;;;;0.95;71.15;101661.19;5011974;28;20113;-61
2024/01/19 06:01:10;;;;;;;16.50;10.23;;;;;;;0.94;71.68;101666.78;5003830;28;20145;-61
2024/01/19 06:03:36;;;;;;;12.30;10.23;;;;;;;0.92;71.29;101666.97;5014043;28;20572;-61
2024/01/19 06:06:02;;;;;;;14.52;11.07;;;;;;;0.91;71.43;101667.16;5012758;28;20034;-64
2024/01/19 06:08:29;;;;;;;12.90;10.63;;;;;;;0.95;71.19;101674.00;5010002;28;20458;-61
2024/01/19 06:10:58;;;;;;;13.07;10.02;;;;;;;0.97;71.78;101677.41;5006695;28;20017;-61
2024/01/19 06:13:24;;;;;;;12.82;10.27;;;;;;;0.99;71.38;101694.50;5007735;28;20033;-61
2024/01/19 06:15:50;;;;;;;13.23;11.00;;;;;;;0.97;71.49;101693.81;4994101;28;20435;-61
2024/01/19 06:18:15;;;;;;;13.60;10.48;;;;;;;0.99;71.56;101702.69;5000709;28;20101;-61
2024/01/19 06:20:42;;;;;;;11.73;10.52;;;;;;;1.00;71.69;101701.66;5008184;28;20106;-62
2024/01/19 06:23:11;;;;;;;14.60;11.50;;;;;;;0.95;71.68;101695.88;5008411;28;20083;-61
2024/01/19 06:25:38;;;;;;;11.65;10.45;;;;;;;0.96;72.22;101698.41;4999630;28;20030;-61
2024/01/19 06:28:04;;;;;;;11.88;10.63;;;;;;;0.98;72.00;101706.44;4995897;28;20116;-62
2024/01/19 06:30:29;;;;;;;13.43;10.88;;;;;;;0.98;72.35;101717.38;4993530;28;20113;-62
2024/01/19 06:32:55;;;;;;;12.38;10.65;;;;;;;0.98;72.43;101712.78;4990154;28;20019;-62
2024/01/19 06:35:20;;;;;;;13.60;10.02;;;;;;;1.01;72.41;101721.66;4989446;28;20054;-61
2024/01/19 06:37:46;;;;;;;12.18;10.15;;;;;;;0.98;71.81;101725.56;4989458;28;20035;-62
2024/01/19 06:40:11;;;;;;;12.82;9.80;;;;;;;0.98;71.71;101740.13;5028289;28;20074;-62
2024/01/19 06:42:37;;;;;;;14.75;11.07;;;;;;;0.99;71.92;101749.16;5023866;28;20049;-61
2024/01/19 06:45:03;;;;;;;16.45;10.70;;;;;;;0.98;71.63;101755.63;5007933;28;20393;-61
2024/01/19 06:47:28;;;;;;;14.50;10.57;;;;;;;0.97;71.66;101746.59;5039871;28;20113;-62
2024/01/19 06:49:54;;;;;;;12.40;10.52;;;;;;;0.96;71.55;101744.03;4989179;28;20042;-62
2024/01/19 06:52:19;;;;;;;15.73;10.80;;;;;;;0.95;71.34;101740.44;5002541;28;20121;-62
2024/01/19 06:54:44;;;;;;;13.52;10.15;;;;;;;0.92;71.19;101742.66;5023253;28;20862;-63
2024/01/19 06:57:09;;;;;;;11.75;9.93;;;;;;;0.88;71.32;101744.03;5011543;28;20041;-62
2024/01/19 06:59:35;;;;;;;16.38;10.70;;;;;;;0.88;71.24;101758.53;5000216;28;20030;-63
2024/01/19 07:02:00;;;;;;;13.25;10.20;;;;;;;0.89;71.71;101764.84;5005742;28;20026;-61
2024/01/19 07:04:25;;;;;;;11.35;9.80;;;;;;;0.87;71.45;101772.38;5005416;28;20374;-62
2024/01/19 07:06:51;;;;;;;13.50;10.15;;;;;;;0.84;71.43;101780.91;5008547;28;20082;-63
2024/01/19 07:09:17;;;;;;;15.93;10.73;;;;;;;0.82;70.93;101772.84;5025559;28;20033;-63
2024/01/19 07:11:42;;;;;;;15.68;10.55;;;;;;;0.81;71.00;101773.88;5005628;28;20026;-63
2024/01/19 07:14:08;;;;;;;14.05;10.38;;;;;;;0.79;70.77;101780.56;4998079;28;20041;-61
2024/01/19 07:16:37;;;;;;;10.35;9.35;;;;;;;0.80;71.56;101783.13;5007968;28;20485;-62
2024/01/19 07:19:03;;;;;;;13.25;10.65;;;;;;;0.79;71.56;101797.81;4999511;28;20427;-61
2024/01/19 07:21:31;;;;;;;16.58;10.20;;;;;;;0.81;71.60;101793.03;5008795;28;20030;-62
2024/01/19 07:23:56;;;;;;;11.95;9.80;;;;;;;0.79;71.06;101800.53;5008171;28;20078;-63
2024/01/19 07:26:21;;;;;;;14.52;10.23;;;;;;;0.77;71.60;101802.56;5008724;28;20478;-62
2024/01/19 07:28:47;;;;;;;14.73;10.07;;;;;;;0.76;71.19;101808.22;5014093;28;20036;-62
2024/01/19 07:31:12;;;;;;;12.07;9.70;;;;;;;0.75;71.22;101796.44;5037562;28;20883;-61
2024/01/19 07:33:37;;;;;;;13.57;11.00;;;;;;;0.76;71.42;101797.28;5037232;28;20026;-61
2024/01/19 07:36:03;;;;;;;14.32;11.73;;;;;;;0.72;70.78;101800.34;4989108;28;20034;-61
2024/01/19 07:38:28;;;;;;;16.00;11.68;;;;;;;0.73;71.41;101801.19;4995434;28;20385;-61
2024/01/19 07:40:54;;;;;;;17.83;14.70;;;;;;;0.70;71.54;101802.38;5008370;28;20394;-62
2024/01/19 07:43:19;;;;;;;14.55;11.75;;;;;;;0.69;70.87;101802.53;5007427;28;20490;-62
2024/01/19 07:45:44;;;;;;;14.63;11.82;;;;;;;0.71;71.46;101811.44;5006897;28;20858;-62
2024/01/19 07:48:09;;;;;;;13.65;12.00;;;;;;;0.66;71.34;101814.66;5018500;28;20048;-62
2024/01/19 07:50:35;;;;;;;12.70;11.02;;;;;;;0.66;71.14;101817.38;5007165;28;20125;-62
2024/01/19 07:53:00;;;;;;;14.32;10.55;;;;;;;0.68;71.22;101825.44;5049166;28;20032;-62
2024/01/19 07:55:25;;;;;;;11.93;9.65;;;;;;;0.65;70.74;101832.06;5005557;28;20030;-63
2024/01/19 07:57:51;;;;;;;12.75;10.13;;;;;;;0.64;70.83;101838.56;5005945;28;20037;-62
2024/01/19 08:00:16;;;;;;;15.00;11.18;;;;;;;0.65;71.17;101840.28;5004323;28;20109;-63
2024/01/19 08:02:43;;;;;;;16.92;11.23;;;;;;;0.65;71.58;101843.00;5007611;28;20037;-63
2024/01/19 08:05:12;;;;;;;18.83;10.57;;;;;;;0.65;72.08;101847.63;5001456;28;20022;-62
2024/01/19 08:07:37;;;;;;;16.98;11.40;;;;;;;0.68;72.16;101850.88;5001309;28;20034;-62
2024/01/19 08:10:03;;;;;;;17.85;11.20;;;;;;;0.69;72.22;101852.59;5004771;28;20025;-62
2024/01/19 08:12:28;;;;;;;16.88;11.55;;;;;;;0.71;73.81;101857.91;5024430;28;20045;-61
2024/01/19 08:14:56;;;;;;;20.23;12.40;;;;;;;0.72;72.85;101865.94;5002709;28;20031;-62
2024/01/19 08:17:22;;;;;;;15.75;11.30;;;;;;;0.72;72.44;101865.94;5012065;28;20161;-62
2024/01/19 08:19:47;;;;;;;14.40;10.88;;;;;;;0.69;71.77;101870.84;5008793;28;21340;-61
2024/01/19 08:22:12;;;;;;;18.48;10.45;;;;;;;0.72;71.72;101885.06;5011391;28;20030;-61
2024/01/19 08:24:38;;;;;;;14.07;10.23;;;;;;;0.72;71.97;101874.13;5006472;28;20044;-62
2024/01/19 08:27:04;;;;;;;17.70;10.93;;;;;;;0.76;72.09;101876.53;5012014;28;20088;-61
2024/01/19 08:29:32;;;;;;;14.25;10.80;;;;;;;0.71;71.59;101880.63;5007413;28;20034;-62
2024/01/19 08:31:57;;;;;;;14.38;10.43;;;;;;;0.72;71.30;101870.53;5043982;28;20508;-62
2024/01/19 08:34:23;;;;;;;12.30;10.27;;;;;;;0.73;71.66;101877.72;5055151;28;20132;-62
2024/01/19 08:36:48;;;;;;;16.35;10.90;;;;;;;0.70;71.33;101881.63;5020663;28;20022;-61
2024/01/19 08:39:14;;;;;;;16.17;10.32;;;;;;;0.73;71.31;101888.63;5022098;28;20034;-61
2024/01/19 08:41:42;;;;;;;13.00;10.23;;;;;;;0.70;71.49;101887.06;5095549;28;20103;-62
2024/01/19 08:44:08;;;;;;;11.85;9.77;;;;;;;0.73;71.76;101889.50;5050347;28;20403;-61
2024/01/19 08:46:34;;;;;;;12.23;9.70;;;;;;;0.72;71.77;101885.06;5073256;28;20032;-62
2024/01/19 08:49:00;;;;;;;13.05;9.75;;;;;;;0.76;72.13;101898.41;5063890;28;20027;-62
2024/01/19 08:51:28;;;;;;;10.90;9.55;;;;;;;0.77;71.66;101891.91;5027554;28;20025;-62
2024/01/19 08:53:54;;;;;;;16.98;9.35;;;;;;;0.78;71.99;101897.19;4995333;28;20033;-62
2024/01/19 08:56:20;;;;;;;14.68;9.63;;;;;;;0.80;71.45;101899.78;5056213;28;20020;-62
2024/01/19 08:58:46;;;;;;;11.02;9.13;;;;;;;0.83;71.67;101905.78;5066254;28;20029;-62
2024/01/19 09:01:18;;;;;;;13.70;9.63;;;;;;;0.85;71.75;101902.88;5086885;28;20079;-62
2024/01/19 09:03:43;;;;;;;13.02;9.65;;;;;;;0.89;71.91;101904.25;5030053;28;20036;-62
2024/01/19 09:06:08;;;;;;;11.27;9.57;;;;;;;0.90;71.73;101922.34;5027672;28;20021;-61
2024/01/19 09:08:34;;;;;;;12.32;8.70;;;;;;;0.93;71.47;101924.78;5065055;28;20395;-62
2024/01/19 09:10:59;;;;;;;11.30;8.90;;;;;;;0.93;71.99;101930.25;5034578;28;20038;-62
2024/01/19 09:13:24;;;;;;;9.85;8.85;;;;;;;0.95;71.80;101933.69;5025127;28;20018;-61
2024/01/19 09:15:49;;;;;;;13.30;9.70;;;;;;;0.95;72.43;101930.94;5112414;28;20047;-62
2024/01/19 09:18:15;;;;;;;9.50;8.50;;;;;;;0.95;72.68;101936.41;5114403;28;20027;-62
2024/01/19 09:20:40;;;;;;;11.45;8.98;;;;;;;0.97;71.97;101942.56;5114912;28;20102;-62
2024/01/19 09:23:05;;;;;;;11.68;10.07;;;;;;;1.01;72.85;101946.69;5115198;28;20122;-62
2024/01/19 09:25:31;;;;;;;13.45;9.10;;;;;;;1.01;72.42;101948.56;5073814;28;20034;-62
2024/01/19 09:27:57;;;;;;;11.65;9.20;;;;;;;1.04;72.65;101946.34;4994279;28;20026;-62
2024/01/19 09:30:22;;;;;;;14.82;9.68;;;;;;;1.05;73.11;101956.25;4991028;28;20103;-62
2024/01/19 09:32:47;;;;;;;12.30;8.63;;;;;;;1.09;73.44;101960.38;4991372;28;20122;-62
2024/01/19 09:35:13;;;;;;;11.30;8.93;;;;;;;1.14;72.74;101968.97;5003879;28;20029;-62
2024/01/19 09:37:38;;;;;;;12.60;8.55;;;;;;;1.17;73.80;101973.25;5029585;28;20824;-62
2024/01/19 09:40:04;;;;;;;9.73;8.25;;;;;;;1.22;73.14;101971.75;5030595;28;20026;-62
2024/01/19 09:42:34;;;;;;;12.32;9.27;;;;;;;1.27;73.70;101975.88;5030090;27;20049;-62
2024/01/19 09:45:04;;;;;;;11.68;9.50;;;;;;;1.33;73.54;101977.91;5073207;28;20024;-62
2024/01/19 09:48:17;;;;;;;12.82;9.48;;;;;;;1.44;73.97;101986.69;5010751;28;20099;-62
2024/01/19 09:50:47;;;;;;;10.07;9.07;;;;;;;1.56;73.43;101983.66;5011391;28;20090;-62
2024/01/19 09:53:32;;;;;;;15.73;9.23;;;;;;;1.67;73.57;101981.47;5012463;28;20030;-62
2024/01/19 09:55:59;;;;;;;12.05;8.95;;;;;;;1.76;73.95;101982.31;5010873;28;20109;-62
2024/01/19 09:58:26;;;;;;;10.52;9.43;;;;;;;1.85;73.02;101991.44;5008989;28;20026;-62
2024/01/19 10:00:52;;;;;;;11.48;9.35;;;;;;;1.96;73.00;101999.31;4998445;28;20026;-62
2024/01/19 10:03:18;;;;;;;12.13;9.05;;;;;;;2.04;73.61;102007.53;4991258;28;20109;-62
2024/01/19 10:05:43;;;;;;;15.30;10.13;;;;;;;2.16;73.65;102014.41;4991105;28;20050;-62
2024/01/19 10:08:12;;;;;;;14.70;9.63;;;;;;;2.28;73.23;102014.06;5010452;28;20036;-62
2024/01/19 10:10:43;;;;;;;14.88;10.05;;;;;;;2.40;72.96;102015.47;5010505;28;20111;-62
2024/01/19 10:13:11;;;;;;;12.80;10.00;;;;;;;2.54;72.80;102022.97;5010377;28;20049;-62
2024/01/19 10:15:42;;;;;;;13.25;9.70;;;;;;;2.64;72.66;102003.63;5010580;28;20029;-62
2024/01/19 10:18:08;;;;;;;11.60;9.02;;;;;;;2.74;71.89;102011.66;5022029;28;20045;-62
2024/01/19 10:20:38;;;;;;;15.75;9.60;;;;;;;2.83;71.79;102014.22;4999810;28;20037;-62
2024/01/19 10:23:23;;;;;;;12.65;9.80;;;;;;;2.97;71.68;102011.81;5009575;28;20026;-62
2024/01/19 10:25:49;;;;;;;17.17;9.18;;;;;;;3.03;71.24;102008.38;5010086;28;20127;-62
2024/01/19 10:28:44;;;;;;;16.75;9.27;;;;;;;3.16;71.30;102017.75;5009357;28;20067;-62
2024/01/19 10:31:22;;;;;;;12.60;8.63;;;;;;;3.25;70.81;102014.97;5016513;28;20053;-61
2024/01/19 10:33:52;;;;;;;14.60;9.25;;;;;;;3.32;70.36;102013.25;5008307;28;20045;-62
2024/01/19 10:36:17;;;;;;;11.00;8.35;;;;;;;3.41;70.82;102014.91;5063888;28;20027;-62
2024/01/19 10:38:42;;;;;;;16.08;10.45;;;;;;;3.51;70.25;102012.81;5011395;28;20106;-61
2024/01/19 10:41:16;;;;;;;14.85;11.32;;;;;;;3.57;70.56;102017.59;5003276;28;20358;-62
2024/01/19 10:43:41;;;;;;;14.20;9.30;;;;;;;3.61;70.36;102020.81;5021471;28;20061;-62
2024/01/19 10:46:20;;;;;;;12.85;9.30;;;;;;;3.67;70.01;102015.50;5009935;28;20389;-62
2024/01/19 10:48:46;;;;;;;12.35;9.27;;;;;;;3.73;69.96;102021.28;5008875;28;20026;-61
2024/01/19 10:51:13;;;;;;;12.18;9.23;;;;;;;3.78;69.60;102016.13;5009895;28;20026;-62
2024/01/19 10:53:39;;;;;;;14.00;9.27;;;;;;;3.85;69.75;102017.97;5008836;28;20026;-62
2024/01/19 10:56:04;;;;;;;11.52;9.50;;;;;;;3.90;69.30;102014.69;5007832;28;20102;-61
2024/01/19 10:58:33;;;;;;;15.50;9.45;;;;;;;3.95;69.10;102023.22;5009689;28;20367;-61
2024/01/19 11:01:15;;;;;;;12.45;9.68;;;;;;;4.00;69.33;102025.44;5021996;28;20026;-61
2024/01/19 11:03:42;;;;;;;14.97;10.13;;;;;;;4.02;69.00;102026.97;5024710;28;20025;-62
2024/01/19 11:06:08;;;;;;;14.82;9.82;;;;;;;4.03;68.54;102019.59;5029339;28;20101;-65
2024/01/19 11:08:33;;;;;;;13.70;10.10;;;;;;;4.04;68.28;102021.28;5029054;28;20081;-63
2024/01/19 11:11:00;;;;;;;17.80;10.85;;;;;;;4.05;68.07;102022.97;5019033;28;20041;-61
2024/01/19 11:13:26;;;;;;;14.32;10.95;;;;;;;4.05;68.70;102021.13;5025095;28;20040;-62
2024/01/19 11:15:58;;;;;;;18.85;11.55;;;;;;;4.06;68.11;102020.06;5009827;28;20082;-62
2024/01/19 11:18:23;;;;;;;16.15;11.88;;;;;;;4.09;68.35;102019.72;5010165;28;20038;-62